4XCGB LLHZ-LLHZ

Flight info

Callsign 4XCGB
Flight time 0h 12m
Altitude 1500
Route AIZORIM
Aircraft C152/L-VGDW/C

Departure

Time 2026-04-27 16:39
Airport Herzliya Airport (LLHZ)

Arrival

Time 2026-04-27 16:51
Airport Herzliya Airport (LLHZ)
Time Latitude Longitude Altitude Speed Heading
2026-04-27 16:23 32.17939 34.83581 115 ft 0 kts 20°
2026-04-27 16:33 32.17941 34.83582 114 ft 3 kts 23°
2026-04-27 16:33 32.17943 34.83632 114 ft 10 kts 108°
2026-04-27 16:34 32.17913 34.83737 119 ft 14 kts 107°
2026-04-27 16:34 32.17884 34.83829 123 ft 8 kts 110°
2026-04-27 16:34 32.17881 34.83844 124 ft 0 kts 98°
2026-04-27 16:36 32.17880 34.83850 125 ft 5 kts 86°
2026-04-27 16:37 32.17915 34.83850 126 ft 3 kts 289°
2026-04-27 16:37 32.17915 34.83849 126 ft 0 kts 290°
2026-04-27 16:38 32.17921 34.83832 125 ft 16 kts 291°
2026-04-27 16:38 32.18020 34.83490 125 ft 64 kts 294°
2026-04-27 16:38 32.18185 34.82936 208 ft 79 kts 294°
2026-04-27 16:38 32.18495 34.82454 397 ft 76 kts
2026-04-27 16:39 32.19016 34.82677 593 ft 77 kts 21°
2026-04-27 16:39 32.19407 34.83033 804 ft 77 kts 69°
2026-04-27 16:39 32.19602 34.83691 862 ft 85 kts 70°
2026-04-27 16:39 32.19816 34.84346 922 ft 89 kts 66°
2026-04-27 16:40 32.20075 34.84991 980 ft 87 kts 59°
2026-04-27 16:40 32.20437 34.85595 945 ft 91 kts 51°
2026-04-27 16:40 32.20852 34.86140 928 ft 93 kts 46°
2026-04-27 16:40 32.21312 34.86685 858 ft 95 kts 43°
2026-04-27 16:41 32.21810 34.87211 774 ft 96 kts 36°
2026-04-27 16:41 32.22394 34.87299 796 ft 85 kts 329°
2026-04-27 16:41 32.22801 34.86798 812 ft 88 kts 303°
2026-04-27 16:41 32.23129 34.86256 1068 ft 79 kts 306°
2026-04-27 16:42 32.23432 34.85720 1323 ft 72 kts 302°
2026-04-27 16:42 32.23699 34.85134 1332 ft 87 kts 292°
2026-04-27 16:42 32.23939 34.84471 1321 ft 87 kts 295°
2026-04-27 16:42 32.24191 34.83815 1343 ft 87 kts 296°
2026-04-27 16:43 32.24665 34.83499 1360 ft 89 kts 19°
2026-04-27 16:43 32.25227 34.83837 1303 ft 87 kts 21°
2026-04-27 16:43 32.25719 34.84058 1269 ft 72 kts 20°
2026-04-27 16:43 32.26225 34.84283 1178 ft 82 kts 19°
2026-04-27 16:44 32.26328 34.84828 1189 ft 79 kts 131°
2026-04-27 16:44 32.25805 34.84909 1121 ft 81 kts 200°
2026-04-27 16:44 32.25317 34.84572 1069 ft 81 kts 214°
2026-04-27 16:44 32.24838 34.84257 1060 ft 78 kts 197°
2026-04-27 16:45 32.24390 34.84096 1120 ft 53 kts 199°
2026-04-27 16:45 32.24019 34.84004 815 ft 79 kts 190°
2026-04-27 16:45 32.23524 34.83803 1016 ft 78 kts 221°
2026-04-27 16:45 32.23444 34.83259 1122 ft 73 kts 310°
2026-04-27 16:46 32.23938 34.83072 1144 ft 82 kts
2026-04-27 16:46 32.24492 34.83179 1177 ft 80 kts 11°
2026-04-27 16:46 32.25030 34.83377 1162 ft 82 kts 19°
2026-04-27 16:46 32.25331 34.83801 1231 ft 73 kts 114°
2026-04-27 16:47 32.24895 34.83992 1216 ft 76 kts 185°
2026-04-27 16:47 32.24528 34.83985 1210 ft 83 kts 181°
2026-04-27 16:47 32.23943 34.84163 1227 ft 90 kts 153°
2026-04-27 16:47 32.23429 34.84604 1229 ft 91 kts 141°
2026-04-27 16:48 32.22948 34.85067 1246 ft 90 kts 142°
2026-04-27 16:48 32.22446 34.85514 1258 ft 89 kts 147°
2026-04-27 16:48 32.21919 34.85920 1218 ft 93 kts 146°
2026-04-27 16:49 32.21200 34.87162 1188 ft 89 kts 124°
2026-04-27 16:49 32.20676 34.87252 1186 ft 87 kts 204°
2026-04-27 16:49 32.20162 34.86851 1087 ft 92 kts 206°
2026-04-27 16:49 32.19592 34.86578 1090 ft 84 kts 202°
2026-04-27 16:50 32.19159 34.86180 1087 ft 80 kts 230°
2026-04-27 16:50 32.18791 34.85649 1017 ft 85 kts 226°
2026-04-27 16:50 32.18306 34.85240 915 ft 88 kts 212°
2026-04-27 16:50 32.17879 34.84850 703 ft 70 kts 236°
2026-04-27 16:51 32.17779 34.84335 422 ft 64 kts 284°
2026-04-27 16:51 32.17918 34.83839 140 ft 62 kts 289°
2026-04-27 16:51 32.18029 34.83463 104 ft 31 kts 289°
2026-04-27 16:51 32.18049 34.83331 101 ft 2 kts 197°
2026-04-27 16:52 32.18036 34.83331 102 ft 5 kts 151°
2026-04-27 16:52 32.18016 34.83386 103 ft 11 kts 109°
2026-04-27 16:52 32.17988 34.83475 105 ft 11 kts 110°
2026-04-27 16:52 32.17969 34.83524 107 ft 3 kts 165°
2026-04-27 16:53 32.17962 34.83521 107 ft 0 kts 201°
2026-04-27 16:53 32.17957 34.83519 107 ft 0 kts 199°